首页
METAR-TAF:

METAR-TAF

机场 :

Magic Valley Regional Airport (Joslin Field)

特溫福爾斯, 爱达荷州, 美国

纬度: 42-28-43N, 经度: 114-28-34W, 海拔: 1265米

当前天气观测

该预报发布于18分钟前的02:53 UTC
风速4节,风向北转西北
温度 20°C
湿度 35%
气压 1014 hPa
能見度: 16.1公里
天空无云

METAR: KTWF 010253Z AUTO 33004KT 10SM CLR 20/04 A2993 RMK AO2 SLP091 T02000044 55001

时间: 21:11 (03:11 UTC)

预报

该预报发布于3小时和50分钟前的23:21 UTC
预报有效从01日的 00点(UTC)到 01日的 24点(UTC)
风速12节,风向
能見度: 10公里
天空无云
从 01日的 0400点(UTC)
风速8节,风向南转西南
能見度: 10公里
多云层高于25000英尺
从 01日的 1700点(UTC)
风速10节,风向西
能見度: 10公里
多云层高于15000英尺

TAF: KTWF 312321Z 0100/0124 36012KT P6SM SKC FM010400 21008KT P6SM BKN250 FM011700 28010KT P6SM BKN150

超过4000个机场的气象观测和天气预报(METAR&TAF报告)。

可查询的气象台以黄色和红色小点在地图上表示。

将鼠标移到小点上方,可查看气象台名称。

然后点击查看天气观测和预报。

如需切换地图:点击带黑十字的绿色按钮放大地图;点击带横线的绿色按钮缩小地图;或者点击绿色箭头查看邻近地区的地图。


METAR-TAF: